Ebenezer — 9N220 — position and weather

sailwx.info

Track history (hours):
 
Tides and Currents Weather Stations Pressure Air Temp Water Temp Dewpoint Dewpoint Depression Visibility Wind Speed Wind Dir Waves Ship Positions

Ebenezer

Last reported at 2018-Jun-23 18:53 UTC. Time now 2018-Jun-25 02:11 UTC.
Position N 05°38' E 000°01'.

Length 20 m.

Type: Ship. MMSI: 752981000.

Date/timePositionNaut miles runAvg speedWind from/ knotsBaromVisibWave heightAir tempDewpointWater temp
2018-Jun-23 18:53N 05°38' E 000°01'2 6.3
2018-Jun-23 18:30N 05°37' E 000°03'0 0.7
2018-Jun-23 18:00N 05°37' E 000°03'3 0.1
2018-Jun-22 14:52N 05°38' E 000°01'0 0.0
2018-Jun-22 14:28N 05°38' E 000°01'0 0.0
2018-Jun-22 13:59N 05°38' E 000°01'0 0.0
2018-Jun-22 13:30N 05°38' E 000°01'0 0.0
2018-Jun-22 13:00N 05°38' E 000°01'0 0.0
2018-Jun-22 12:25N 05°38' E 000°01'2 5.2
2018-Jun-22 12:00N 05°38' E 000°03'3 3.9
2018-Jun-22 11:10N 05°38' E 000°06'1 7.2
2018-Jun-22 10:59N 05°38' E 000°05'4 7.1
2018-Jun-22 10:29N 05°38' E 000°01'1 0.0
2018-Jun-21 19:44N 05°38' E 000°01'1 2.1
2018-Jun-21 19:28N 05°38' E 000°01'2 4.0
2018-Jun-21 18:51N 05°36' E 000°03'2 5.6
2018-Jun-21 18:30N 05°37' E 000°05'2 3.8
2018-Jun-21 18:00N 05°38' E 000°07'1 2.4
2018-Jun-21 17:30N 05°38' E 000°08'1 1.2
2018-Jun-21 16:56N 05°37' E 000°07'1 1.6
2018-Jun-21 16:30N 05°37' E 000°08'1 0.9
2018-Jun-21 15:58N 05°37' E 000°08'0 0.2
2018-Jun-21 15:30N 05°37' E 000°08'0 0.4
2018-Jun-21 14:55N 05°37' E 000°07'2 4.7
2018-Jun-21 14:30N 05°38' E 000°06'3 6.4
2018-Jun-21 14:00N 05°38' E 000°03'1 0.3
2018-Jun-21 08:43N 05°38' E 000°01'1 6.3
2018-Jun-21 08:30N 05°38' E 000°02'3 6.0
2018-Jun-21 08:00N 05°38' E 000°05'3 5.6
2018-Jun-21 07:30N 05°38' E 000°08'2 4.8
2018-Jun-21 07:00N 05°38' E 000°06'4 7.1
2018-Jun-21 06:30N 05°38' E 000°02'1 0.1
2018-Jun-20 10:32N 05°38' E 000°01'0 0.0
2018-Jun-20 10:29N 05°38' E 000°01'0 0.0
2018-Jun-20 09:59N 05°38' E 000°01'0 0.6
2018-Jun-20 09:30N 05°38' E 000°01'0 0.2
2018-Jun-20 09:00N 05°38' E 000°01'3 5.0
2018-Jun-20 08:28N 05°38' E 000°04'2 3.5
2018-Jun-20 08:00N 05°38' E 000°05'3 6.8
2018-Jun-20 07:29N 05°38' E 000°02'1 0.0
2018-Jun-18 18:45N 05°38' E 000°01'1 4.6
2018-Jun-18 18:30N 05°38' E 000°02'2 4.7
2018-Jun-18 18:00N 05°39' E 000°04'0 0.3
2018-Jun-18 17:29N 05°39' E 000°04'1 1.8
2018-Jun-18 17:01N 05°39' E 000°03'3 0.3
2018-Jun-18 09:35N 05°38' E 000°01'0 0.0
2018-Jun-18 09:29N 05°38' E 000°01'1 2.4
2018-Jun-18 09:00N 05°38' E 000°02'2 4.5
2018-Jun-18 08:29N 05°39' E 000°04'1 1.5
2018-Jun-18 08:00N 05°39' E 000°04'3 0.1
2018-Jun-16 15:23N 05°38' E 000°01'2 6.2
2018-Jun-16 15:00N 05°39' E 000°03'1 0.9
2018-Jun-16 13:58N 05°39' E 000°04'0 1.0
2018-Jun-16 13:30N 05°39' E 000°04'3 0.5
2018-Jun-16 07:52N 05°38' E 000°01'0 0.5
2018-Jun-16 07:30N 05°38' E 000°01'3 6.5
2018-Jun-16 07:00N 05°39' E 000°04'0 0.6
2018-Jun-16 06:30N 05°39' E 000°04'3 0.4
2018-Jun-15 22:00N 05°38' E 000°01'0 0.0
2018-Jun-15 14:03N 05°38' E 000°01'0 0.3
2018-Jun-15 13:52N 05°38' E 000°01'0 0.2
2018-Jun-15 13:27N 05°38' E 000°01'3 6.4
2018-Jun-15 13:00N 05°36' W 000°00'1 1.2
2018-Jun-15 12:28N 05°35' W 000°00'2 3.5
2018-Jun-15 11:58N 05°36' E 000°01'2 1.1
2018-Jun-15 10:15N 05°38' E 000°01'1 3.3
2018-Jun-15 10:00N 05°38' E 000°02'3 6.6
2018-Jun-15 09:30N 05°38' E 000°05'1 2.1
2018-Jun-15 08:57N 05°37' E 000°06'3 7.4
2018-Jun-15 08:30N 05°36' E 000°03'3 0.2
2018-Jun-14 18:19N 05°38' E 000°01'1 2.7
2018-Jun-14 18:00N 05°38' E 000°01'3 5.6
2018-Jun-14 17:28N 05°35' W 000°00'1 2.7
2018-Jun-14 17:00N 05°36' E 000°01'4 7.2
2018-Jun-14 16:30N 05°37' E 000°04'4 6.9
2018-Jun-14 15:58N 05°37' E 000°08'3 6.1
2018-Jun-14 15:29N 05°38' E 000°05'3 7.0
2018-Jun-14 15:00N 05°38' E 000°01'1 1.0
2018-Jun-14 14:30N 05°38' E 000°01'0 0.0
2018-Jun-14 14:00N 05°38' E 000°01'0 0.0
2018-Jun-14 13:30N 05°38' E 000°01'2 4.0
2018-Jun-14 12:59N 05°39' E 000°03'1 2.8
2018-Jun-14 12:29N 05°39' E 000°04'0 0.0
2018-Jun-14 11:57N 05°39' E 000°04'0 0.3
2018-Jun-14 11:28N 05°39' E 000°04'3 6.9
2018-Jun-14 11:00N 05°38' E 000°01'  
Track history (hours):
 
Tides and Currents Weather Stations Pressure Air Temp Water Temp Dewpoint Dewpoint Depression Visibility Wind Speed Wind Dir Waves Ship Positions

Ebenezer

Last reported at 2018-Jun-23 18:53 UTC. Time now 2018-Jun-25 02:11 UTC.
Position N 05°38' E 000°01'.

Length 20 m.

Type: Ship. MMSI: 752981000.

Date/timePositionNaut miles runAvg speedWind from/ knotsBaromVisibWave heightAir tempDewpointWater temp
2018-Jun-23 18:53N 05°38' E 000°01'2 6.3
2018-Jun-23 18:30N 05°37' E 000°03'0 0.7
2018-Jun-23 18:00N 05°37' E 000°03'3 0.1
2018-Jun-22 14:52N 05°38' E 000°01'0 0.0
2018-Jun-22 14:28N 05°38' E 000°01'0 0.0
2018-Jun-22 13:59N 05°38' E 000°01'0 0.0
2018-Jun-22 13:30N 05°38' E 000°01'0 0.0
2018-Jun-22 13:00N 05°38' E 000°01'0 0.0
2018-Jun-22 12:25N 05°38' E 000°01'2 5.2
2018-Jun-22 12:00N 05°38' E 000°03'3 3.9
2018-Jun-22 11:10N 05°38' E 000°06'1 7.2
2018-Jun-22 10:59N 05°38' E 000°05'4 7.1
2018-Jun-22 10:29N 05°38' E 000°01'1 0.0
2018-Jun-21 19:44N 05°38' E 000°01'1 2.1
2018-Jun-21 19:28N 05°38' E 000°01'2 4.0
2018-Jun-21 18:51N 05°36' E 000°03'2 5.6
2018-Jun-21 18:30N 05°37' E 000°05'2 3.8
2018-Jun-21 18:00N 05°38' E 000°07'1 2.4
2018-Jun-21 17:30N 05°38' E 000°08'1 1.2
2018-Jun-21 16:56N 05°37' E 000°07'1 1.6
2018-Jun-21 16:30N 05°37' E 000°08'1 0.9
2018-Jun-21 15:58N 05°37' E 000°08'0 0.2
2018-Jun-21 15:30N 05°37' E 000°08'0 0.4
2018-Jun-21 14:55N 05°37' E 000°07'2 4.7
2018-Jun-21 14:30N 05°38' E 000°06'3 6.4
2018-Jun-21 14:00N 05°38' E 000°03'1 0.3
2018-Jun-21 08:43N 05°38' E 000°01'1 6.3
2018-Jun-21 08:30N 05°38' E 000°02'3 6.0
2018-Jun-21 08:00N 05°38' E 000°05'3 5.6
2018-Jun-21 07:30N 05°38' E 000°08'2 4.8
2018-Jun-21 07:00N 05°38' E 000°06'4 7.1
2018-Jun-21 06:30N 05°38' E 000°02'1 0.1
2018-Jun-20 10:32N 05°38' E 000°01'0 0.0
2018-Jun-20 10:29N 05°38' E 000°01'0 0.0
2018-Jun-20 09:59N 05°38' E 000°01'0 0.6
2018-Jun-20 09:30N 05°38' E 000°01'0 0.2
2018-Jun-20 09:00N 05°38' E 000°01'3 5.0
2018-Jun-20 08:28N 05°38' E 000°04'2 3.5
2018-Jun-20 08:00N 05°38' E 000°05'3 6.8
2018-Jun-20 07:29N 05°38' E 000°02'1 0.0
2018-Jun-18 18:45N 05°38' E 000°01'1 4.6
2018-Jun-18 18:30N 05°38' E 000°02'2 4.7
2018-Jun-18 18:00N 05°39' E 000°04'0 0.3
2018-Jun-18 17:29N 05°39' E 000°04'1 1.8
2018-Jun-18 17:01N 05°39' E 000°03'3 0.3
2018-Jun-18 09:35N 05°38' E 000°01'0 0.0
2018-Jun-18 09:29N 05°38' E 000°01'1 2.4
2018-Jun-18 09:00N 05°38' E 000°02'2 4.5
2018-Jun-18 08:29N 05°39' E 000°04'1 1.5
2018-Jun-18 08:00N 05°39' E 000°04'3 0.1
2018-Jun-16 15:23N 05°38' E 000°01'2 6.2
2018-Jun-16 15:00N 05°39' E 000°03'1 0.9
2018-Jun-16 13:58N 05°39' E 000°04'0 1.0
2018-Jun-16 13:30N 05°39' E 000°04'3 0.5
2018-Jun-16 07:52N 05°38' E 000°01'0 0.5
2018-Jun-16 07:30N 05°38' E 000°01'3 6.5
2018-Jun-16 07:00N 05°39' E 000°04'0 0.6
2018-Jun-16 06:30N 05°39' E 000°04'3 0.4
2018-Jun-15 22:00N 05°38' E 000°01'0 0.0
2018-Jun-15 14:03N 05°38' E 000°01'0 0.3
2018-Jun-15 13:52N 05°38' E 000°01'0 0.2
2018-Jun-15 13:27N 05°38' E 000°01'3 6.4
2018-Jun-15 13:00N 05°36' W 000°00'1 1.2
2018-Jun-15 12:28N 05°35' W 000°00'2 3.5
2018-Jun-15 11:58N 05°36' E 000°01'2 1.1
2018-Jun-15 10:15N 05°38' E 000°01'1 3.3
2018-Jun-15 10:00N 05°38' E 000°02'3 6.6
2018-Jun-15 09:30N 05°38' E 000°05'1 2.1
2018-Jun-15 08:57N 05°37' E 000°06'3 7.4
2018-Jun-15 08:30N 05°36' E 000°03'3 0.2
2018-Jun-14 18:19N 05°38' E 000°01'1 2.7
2018-Jun-14 18:00N 05°38' E 000°01'3 5.6
2018-Jun-14 17:28N 05°35' W 000°00'1 2.7
2018-Jun-14 17:00N 05°36' E 000°01'4 7.2
2018-Jun-14 16:30N 05°37' E 000°04'4 6.9
2018-Jun-14 15:58N 05°37' E 000°08'3 6.1
2018-Jun-14 15:29N 05°38' E 000°05'3 7.0
2018-Jun-14 15:00N 05°38' E 000°01'1 1.0
2018-Jun-14 14:30N 05°38' E 000°01'0 0.0
2018-Jun-14 14:00N 05°38' E 000°01'0 0.0
2018-Jun-14 13:30N 05°38' E 000°01'2 4.0
2018-Jun-14 12:59N 05°39' E 000°03'1 2.8
2018-Jun-14 12:29N 05°39' E 000°04'0 0.0
2018-Jun-14 11:57N 05°39' E 000°04'0 0.3
2018-Jun-14 11:28N 05°39' E 000°04'3 6.9
2018-Jun-14 11:00N 05°38' E 000°01'  

Dump ship's entire track history